Time;durP1;ratioP1;P1;durP2;ratioP2;P2;SDS_P1;SDS_P2;PMS_P1;PMS_P2;Temp;Humidity;BMP_temperature;BMP_pressure;BME280_temperature;BME280_humidity;BME280_pressure;Samples;Min_cycle;Max_cycle;Signal;HPM_P1;HPM_P2
2022/09/02 00:01:42;;;;;;;;;;;16.80;73.30;;;;;;5041677;28;19920;-83
2022/09/02 00:04:09;;;;;;;;;;;16.80;72.50;;;;;;5041396;28;19929;-83
2022/09/02 00:06:35;;;;;;;;;;;16.80;72.60;;;;;;5039744;28;20382;-84
2022/09/02 00:09:02;;;;;;;;;;;16.70;73.10;;;;;;5039438;28;19974;-84
2022/09/02 00:11:29;;;;;;;;;;;16.70;75.00;;;;;;5030978;28;19967;-84
2022/09/02 00:13:55;;;;;;;;;;;16.70;74.60;;;;;;5031873;28;19925;-83
2022/09/02 00:16:22;;;;;;;;;;;16.60;73.90;;;;;;5031134;28;19927;-84
2022/09/02 00:18:48;;;;;;;;;;;16.60;74.80;;;;;;5031551;28;19921;-84
2022/09/02 00:21:13;;;;;;;;;;;16.60;74.40;;;;;;5030921;28;19932;-84
2022/09/02 00:23:40;;;;;;;;;;;16.60;74.50;;;;;;5048239;28;19928;-83
2022/09/02 00:26:06;;;;;;;;;;;16.60;74.50;;;;;;5031160;28;19925;-84
2022/09/02 00:28:31;;;;;;;;;;;16.50;76.70;;;;;;5031286;28;20326;-83
2022/09/02 00:30:56;;;;;;;;;;;16.50;76.00;;;;;;5047446;28;19921;-83
2022/09/02 00:33:22;;;;;;;;;;;16.50;77.50;;;;;;5047379;28;19928;-83
2022/09/02 00:35:48;;;;;;;;;;;16.50;77.60;;;;;;5031074;28;20022;-83
2022/09/02 00:38:13;;;;;;;;;;;16.40;79.60;;;;;;5047605;28;19929;-83
2022/09/02 00:40:42;;;;;;;;;;;16.40;77.50;;;;;;5030827;28;19928;-83
2022/09/02 00:43:08;;;;;;;;;;;16.30;80.10;;;;;;5030780;28;19921;-83
2022/09/02 00:45:34;;;;;;;;;;;16.30;80.20;;;;;;5047316;28;19986;-83
2022/09/02 00:47:59;;;;;;;;;;;16.30;80.20;;;;;;5030719;28;19960;-83
2022/09/02 00:50:29;;;;;;;;;;;16.30;81.20;;;;;;5030678;28;19964;-83
2022/09/02 00:52:59;;;;;;;;;;;16.30;82.50;;;;;;5030509;28;20016;-83
2022/09/02 00:55:26;;;;;;;;;;;16.20;84.00;;;;;;5030685;28;19967;-83
2022/09/02 00:57:58;;;;;;;;;;;16.20;83.00;;;;;;5030741;28;19925;-83
2022/09/02 01:00:29;;;;;;;;;;;16.20;82.70;;;;;;5030069;28;20301;-83
2022/09/02 01:02:56;;;;;;;;;;;16.20;84.70;;;;;;5030585;28;19925;-83
2022/09/02 01:05:23;;;;;;;;;;;16.10;84.20;;;;;;5030050;28;19929;-83
2022/09/02 01:07:50;;;;;;;;;;;16.10;84.10;;;;;;5030125;28;19921;-83
2022/09/02 01:10:17;;;;;;;;;;;16.10;85.10;;;;;;5030649;28;20342;-84
2022/09/02 01:12:42;;;;;;;;;;;16.00;86.10;;;;;;5029929;28;19925;-83
2022/09/02 01:15:09;;;;;;;;;;;16.10;85.30;;;;;;5014044;28;19944;-83
2022/09/02 01:17:34;;;;;;;;;;;16.00;86.60;;;;;;5030184;28;19925;-83
2022/09/02 01:20:10;;;;;;;;;;;16.00;85.50;;;;;;5014400;28;19928;-84
2022/09/02 01:22:37;;;;;;;;;;;16.00;89.00;;;;;;5030340;28;19929;-84
2022/09/02 01:25:04;;;;;;;;;;;16.00;87.20;;;;;;5029997;28;20003;-83
2022/09/02 01:27:30;;;;;;;;;;;15.90;87.30;;;;;;5047261;28;20425;-84
2022/09/02 01:29:57;;;;;;;;;;;15.90;88.30;;;;;;5030363;28;19984;-83
2022/09/02 01:32:23;;;;;;;;;;;15.80;87.40;;;;;;5047840;28;19925;-83
2022/09/02 01:34:49;;;;;;;;;;;15.80;90.20;;;;;;5033501;28;19970;-84
2022/09/02 01:37:15;;;;;;;;;;;15.80;89.60;;;;;;5050590;28;19920;-83
2022/09/02 01:39:40;;;;;;;;;;;15.80;91.50;;;;;;5050015;28;20397;-83
2022/09/02 01:42:06;;;;;;;;;;;15.80;90.50;;;;;;5033307;28;19921;-84
2022/09/02 01:44:33;;;;;;;;;;;15.80;90.50;;;;;;5050008;28;19956;-84
2022/09/02 01:46:59;;;;;;;;;;;15.80;91.10;;;;;;5032875;28;19921;-83
2022/09/02 01:49:24;;;;;;;;;;;15.70;91.30;;;;;;5033693;28;19943;-84
2022/09/02 01:51:53;;;;;;;;;;;15.70;91.90;;;;;;5033193;28;20019;-83
2022/09/02 01:54:18;;;;;;;;;;;15.70;92.80;;;;;;5049686;28;19924;-83
2022/09/02 01:56:44;;;;;;;;;;;15.70;92.60;;;;;;5050284;28;19927;-83
2022/09/02 01:59:16;;;;;;;;;;;15.60;93.60;;;;;;5033575;28;19928;-83
2022/09/02 02:01:42;;;;;;;;;;;15.60;93.40;;;;;;5049475;28;19963;-83
2022/09/02 02:04:08;;;;;;;;;;;15.60;93.00;;;;;;5049974;28;19921;-84
2022/09/02 02:06:34;;;;;;;;;;;15.60;92.30;;;;;;5049905;28;19921;-83
2022/09/02 02:08:59;;;;;;;;;;;15.60;93.00;;;;;;5032821;28;19959;-83
2022/09/02 02:11:25;;;;;;;;;;;15.50;93.00;;;;;;5051155;28;20309;-83
2022/09/02 02:13:50;;;;;;;;;;;15.50;93.90;;;;;;5049676;28;19979;-84
2022/09/02 02:16:16;;;;;;;;;;;15.50;94.00;;;;;;5049583;28;19925;-84
2022/09/02 02:18:41;;;;;;;;;;;15.40;93.20;;;;;;5052502;28;20306;-84
2022/09/02 02:21:07;;;;;;;;;;;15.40;94.20;;;;;;5053278;28;19928;-84
2022/09/02 02:23:32;;;;;;;;;;;15.40;95.40;;;;;;5036678;28;19920;-83
2022/09/02 02:25:58;;;;;;;;;;;15.40;93.40;;;;;;5036814;28;19927;-84
2022/09/02 02:28:23;;;;;;;;;;;15.40;95.20;;;;;;5036790;28;19921;-83
2022/09/02 02:30:49;;;;;;;;;;;15.30;95.80;;;;;;5054549;28;19943;-84
2022/09/02 02:33:14;;;;;;;;;;;15.30;94.10;;;;;;5053000;28;19947;-83
2022/09/02 02:35:40;;;;;;;;;;;15.30;95.80;;;;;;5053098;28;19979;-83
2022/09/02 02:38:07;;;;;;;;;;;15.30;95.70;;;;;;5036470;28;19928;-84
2022/09/02 02:40:32;;;;;;;;;;;15.30;95.50;;;;;;5036366;28;19929;-83
2022/09/02 02:42:58;;;;;;;;;;;15.30;95.30;;;;;;5052815;28;19921;-83
2022/09/02 02:45:24;;;;;;;;;;;15.20;96.70;;;;;;5053044;28;19920;-84
2022/09/02 02:47:51;;;;;;;;;;;15.20;95.80;;;;;;5036183;28;20481;-84
2022/09/02 02:50:17;;;;;;;;;;;15.20;95.30;;;;;;5036356;28;19924;-83
2022/09/02 02:52:43;;;;;;;;;;;15.20;97.60;;;;;;5052287;28;20394;-83
2022/09/02 02:55:10;;;;;;;;;;;15.10;96.90;;;;;;5052763;28;19928;-83
2022/09/02 02:57:37;;;;;;;;;;;15.10;95.80;;;;;;5053220;28;20350;-83
2022/09/02 03:00:05;;;;;;;;;;;15.10;97.30;;;;;;5052077;28;20382;-83
2022/09/02 03:02:33;;;;;;;;;;;15.10;97.60;;;;;;5035668;28;19921;-84
2022/09/02 03:04:59;;;;;;;;;;;15.10;96.70;;;;;;5035898;28;20591;-83
2022/09/02 03:07:25;;;;;;;;;;;15.10;97.80;;;;;;5036131;28;19927;-83
2022/09/02 03:09:50;;;;;;;;;;;15.00;98.00;;;;;;5036039;28;19921;-83
2022/09/02 03:12:16;;;;;;;;;;;15.00;98.10;;;;;;5035385;28;19935;-83
2022/09/02 03:14:42;;;;;;;;;;;15.00;98.70;;;;;;5052451;28;19975;-83
2022/09/02 03:17:08;;;;;;;;;;;15.00;98.90;;;;;;5052455;28;19921;-83
2022/09/02 03:19:33;;;;;;;;;;;15.00;98.40;;;;;;5052572;28;19928;-83
2022/09/02 03:21:59;;;;;;;;;;;15.00;99.40;;;;;;5051996;28;19921;-83
2022/09/02 03:24:24;;;;;;;;;;;14.90;98.40;;;;;;5035815;28;19943;-83
2022/09/02 03:26:50;;;;;;;;;;;14.90;98.90;;;;;;5052140;28;19966;-83
2022/09/02 03:29:15;;;;;;;;;;;14.90;99.40;;;;;;5051830;28;20351;-83
2022/09/02 03:31:41;;;;;;;;;;;14.90;99.20;;;;;;5035166;28;19921;-83
2022/09/02 03:34:06;;;;;;;;;;;14.80;98.70;;;;;;5035556;28;20397;-83
2022/09/02 03:36:34;;;;;;;;;;;14.80;99.30;;;;;;5052115;28;19927;-83
2022/09/02 03:39:00;;;;;;;;;;;14.80;99.20;;;;;;5051698;28;19943;-83
2022/09/02 03:41:26;;;;;;;;;;;14.80;99.90;;;;;;5051603;28;19926;-83
2022/09/02 03:43:51;;;;;;;;;;;14.80;99.50;;;;;;5052330;28;19975;-83
2022/09/02 03:46:17;;;;;;;;;;;14.80;99.90;;;;;;5051718;28;20398;-83
2022/09/02 03:48:43;;;;;;;;;;;14.80;99.20;;;;;;5052085;28;19925;-83
2022/09/02 03:51:09;;;;;;;;;;;14.70;99.90;;;;;;5051546;28;20427;-83
2022/09/02 03:53:34;;;;;;;;;;;14.70;99.90;;;;;;5034895;28;19964;-83
2022/09/02 03:56:07;;;;;;;;;;;14.70;99.90;;;;;;5034823;28;19921;-83
2022/09/02 03:58:33;;;;;;;;;;;14.70;99.90;;;;;;5051972;28;19921;-83
2022/09/02 04:00:59;;;;;;;;;;;14.60;99.90;;;;;;5050931;28;19921;-83
2022/09/02 04:03:24;;;;;;;;;;;14.60;99.90;;;;;;5051775;28;20007;-83
2022/09/02 04:05:51;;;;;;;;;;;14.60;99.90;;;;;;5051427;28;19925;-83
2022/09/02 04:08:17;;;;;;;;;;;14.60;99.90;;;;;;5051257;28;19928;-83
2022/09/02 04:10:43;;;;;;;;;;;14.60;99.90;;;;;;5051123;28;19925;-83
2022/09/02 04:13:08;;;;;;;;;;;14.60;99.90;;;;;;5050914;28;19947;-83
2022/09/02 04:15:37;;;;;;;;;;;14.50;99.90;;;;;;5051122;28;19927;-83
2022/09/02 04:18:03;;;;;;;;;;;14.50;99.90;;;;;;5034728;28;19927;-83
2022/09/02 04:20:29;;;;;;;;;;;14.50;99.90;;;;;;5051491;28;20293;-83
2022/09/02 04:22:54;;;;;;;;;;;14.50;99.90;;;;;;5050737;28;19928;-83
2022/09/02 04:25:20;;;;;;;;;;;14.50;99.90;;;;;;5051053;28;20410;-83
2022/09/02 04:27:45;;;;;;;;;;;14.40;99.90;;;;;;5034486;28;20040;-83
2022/09/02 04:30:15;;;;;;;;;;;14.40;99.90;;;;;;5051146;28;20020;-83
2022/09/02 04:32:40;;;;;;;;;;;14.40;99.90;;;;;;5050674;28;20322;-83
2022/09/02 04:35:06;;;;;;;;;;;14.40;99.90;;;;;;5034330;28;19924;-83
2022/09/02 04:37:32;;;;;;;;;;;14.40;99.90;;;;;;5033893;28;20360;-83
2022/09/02 04:39:57;;;;;;;;;;;14.40;99.90;;;;;;5033550;28;19920;-83
2022/09/02 04:42:24;;;;;;;;;;;14.30;99.90;;;;;;5050120;28;19928;-83
2022/09/02 04:44:51;;;;;;;;;;;14.30;99.90;;;;;;5050589;28;19920;-83
2022/09/02 04:47:16;;;;;;;;;;;14.30;99.90;;;;;;5050816;28;19975;-83
2022/09/02 04:49:42;;;;;;;;;;;14.30;99.90;;;;;;5050663;28;20325;-83
2022/09/02 04:52:09;;;;;;;;;;;14.30;99.90;;;;;;5049937;28;19924;-83
2022/09/02 04:54:34;;;;;;;;;;;14.30;99.90;;;;;;5034022;28;19925;-83
2022/09/02 04:57:00;;;;;;;;;;;14.30;99.90;;;;;;5034369;28;19966;-83
2022/09/02 04:59:25;;;;;;;;;;;14.30;99.90;;;;;;5050410;28;19985;-83
2022/09/02 05:01:51;;;;;;;;;;;14.20;99.90;;;;;;5033748;28;19924;-83
2022/09/02 05:04:17;;;;;;;;;;;14.30;99.90;;;;;;5050508;28;20360;-83
2022/09/02 05:06:42;;;;;;;;;;;14.20;99.90;;;;;;5050291;28;19925;-83
2022/09/02 05:09:08;;;;;;;;;;;14.20;99.90;;;;;;5050468;28;20019;-83
2022/09/02 05:11:34;;;;;;;;;;;14.20;99.90;;;;;;5050233;28;19975;-83
2022/09/02 05:14:00;;;;;;;;;;;14.20;99.90;;;;;;5050071;28;19971;-83
2022/09/02 05:16:27;;;;;;;;;;;14.20;99.90;;;;;;5050440;28;19928;-83
2022/09/02 05:18:54;;;;;;;;;;;14.20;99.90;;;;;;5050749;28;19928;-83
2022/09/02 05:21:19;;;;;;;;;;;14.20;99.90;;;;;;5049512;28;20512;-83
2022/09/02 05:23:45;;;;;;;;;;;14.20;99.90;;;;;;5050292;28;19979;-83
2022/09/02 05:26:11;;;;;;;;;;;14.20;99.90;;;;;;5050142;28;19928;-83
2022/09/02 05:28:38;;;;;;;;;;;14.20;99.90;;;;;;5050122;28;20390;-83
2022/09/02 05:31:09;;;;;;;;;;;14.20;99.90;;;;;;5033044;28;20019;-82
2022/09/02 05:33:37;;;;;;;;;;;14.20;99.90;;;;;;5050310;28;20018;-83
2022/09/02 05:36:03;;;;;;;;;;;14.30;99.90;;;;;;5049588;28;19927;-83
2022/09/02 05:38:30;;;;;;;;;;;14.30;99.90;;;;;;5033803;28;19921;-84
2022/09/02 05:40:56;;;;;;;;;;;14.30;99.90;;;;;;5033476;28;19968;-83
2022/09/02 05:43:21;;;;;;;;;;;14.30;99.90;;;;;;5049848;28;20431;-84
2022/09/02 05:45:47;;;;;;;;;;;14.30;99.90;;;;;;5049851;28;19927;-83
2022/09/02 05:50:57;;;;;;;;;;;14.40;99.90;;;;;;5049587;28;20401;-83
2022/09/02 05:53:25;;;;;;;;;;;14.40;99.90;;;;;;5052391;28;19925;-83
2022/09/02 05:55:51;;;;;;;;;;;14.40;99.90;;;;;;5053946;28;19924;-83
2022/09/02 05:58:17;;;;;;;;;;;14.40;99.90;;;;;;5053822;28;19932;-83
2022/09/02 06:00:42;;;;;;;;;;;14.50;99.90;;;;;;5054774;28;19928;-83
2022/09/02 06:03:08;;;;;;;;;;;14.50;99.90;;;;;;5053850;28;19924;-83
2022/09/02 06:05:36;;;;;;;;;;;14.50;99.90;;;;;;5053736;28;20007;-83
2022/09/02 06:08:01;;;;;;;;;;;14.50;99.90;;;;;;5037379;28;20391;-83
2022/09/02 06:10:27;;;;;;;;;;;14.60;99.90;;;;;;5054109;28;20017;-83
2022/09/02 06:12:52;;;;;;;;;;;14.60;99.90;;;;;;5036530;28;20306;-83
2022/09/02 06:15:18;;;;;;;;;;;14.70;99.90;;;;;;5053382;28;19924;-83
2022/09/02 06:17:43;;;;;;;;;;;14.70;99.90;;;;;;5037281;28;20341;-84
2022/09/02 06:20:09;;;;;;;;;;;14.70;99.90;;;;;;5036987;28;20382;-84
2022/09/02 06:22:34;;;;;;;;;;;14.80;99.90;;;;;;5036036;28;19921;-84
2022/09/02 06:25:00;;;;;;;;;;;14.80;99.90;;;;;;5053198;28;20358;-84
2022/09/02 06:27:25;;;;;;;;;;;14.90;99.90;;;;;;5053831;28;20332;-83
2022/09/02 06:29:51;;;;;;;;;;;14.90;99.90;;;;;;5053226;28;19955;-83
2022/09/02 06:32:16;;;;;;;;;;;14.90;99.90;;;;;;5053086;28;19936;-84
2022/09/02 06:34:42;;;;;;;;;;;15.00;99.90;;;;;;5053291;28;19964;-84
2022/09/02 06:37:07;;;;;;;;;;;15.00;99.90;;;;;;5052762;28;19921;-83
2022/09/02 06:39:33;;;;;;;;;;;15.00;99.90;;;;;;5053428;28;19925;-84
2022/09/02 06:41:58;;;;;;;;;;;15.10;99.90;;;;;;5051535;28;19928;-84
2022/09/02 06:44:24;;;;;;;;;;;15.20;99.90;;;;;;5052904;28;19987;-83
2022/09/02 06:46:54;;;;;;;;;;;15.20;99.90;;;;;;5036893;28;19927;-84
2022/09/02 06:49:20;;;;;;;;;;;15.30;99.90;;;;;;5052946;28;19920;-84
2022/09/02 06:51:47;;;;;;;;;;;15.30;99.90;;;;;;5052266;28;19927;-84
2022/09/02 06:54:14;;;;;;;;;;;15.40;99.90;;;;;;5052903;28;19968;-84
2022/09/02 06:56:41;;;;;;;;;;;15.50;99.90;;;;;;5052982;28;19935;-84
2022/09/02 06:59:06;;;;;;;;;;;15.50;99.90;;;;;;5052523;28;19967;-83
2022/09/02 07:01:33;;;;;;;;;;;15.60;99.90;;;;;;5052740;28;19964;-83
2022/09/02 07:06:44;;;;;;;;;;;15.70;99.90;;;;;;5052586;28;20395;-84
2022/09/02 07:09:11;;;;;;;;;;;15.80;99.90;;;;;;5036070;28;20378;-84
2022/09/02 07:11:36;;;;;;;;;;;15.90;99.90;;;;;;5052299;28;19925;-84
2022/09/02 07:14:02;;;;;;;;;;;15.90;99.90;;;;;;5035733;28;19925;-84
2022/09/02 07:16:29;;;;;;;;;;;16.00;99.90;;;;;;5041831;28;19972;-84
2022/09/02 07:18:55;;;;;;;;;;;16.10;99.90;;;;;;5049052;28;19921;-84
2022/09/02 07:21:21;;;;;;;;;;;16.20;99.90;;;;;;5031888;28;19990;-83
2022/09/02 07:23:46;;;;;;;;;;;16.20;99.90;;;;;;5049367;28;19941;-83
2022/09/02 07:26:12;;;;;;;;;;;16.30;99.90;;;;;;5032669;28;20383;-84
2022/09/02 07:28:38;;;;;;;;;;;16.40;99.90;;;;;;5032176;28;19971;-83
2022/09/02 07:31:07;;;;;;;;;;;16.50;99.90;;;;;;5032164;28;19921;-84
2022/09/02 07:33:32;;;;;;;;;;;16.60;99.90;;;;;;5031945;28;19974;-84
2022/09/02 07:35:58;;;;;;;;;;;16.70;99.90;;;;;;5031976;28;19921;-84
2022/09/02 07:38:24;;;;;;;;;;;16.70;99.90;;;;;;5032482;28;20405;-84
2022/09/02 07:40:50;;;;;;;;;;;16.80;99.90;;;;;;5032111;28;19921;-84
2022/09/02 07:43:15;;;;;;;;;;;16.90;99.90;;;;;;5048469;28;19921;-84
2022/09/02 07:45:42;;;;;;;;;;;17.00;99.90;;;;;;5048518;28;19921;-84
2022/09/02 07:48:07;;;;;;;;;;;17.10;99.90;;;;;;5031837;28;19921;-84
2022/09/02 07:50:34;;;;;;;;;;;17.20;99.90;;;;;;5032120;28;19943;-83
2022/09/02 07:53:02;;;;;;;;;;;17.30;99.90;;;;;;5031804;28;19932;-84
2022/09/02 07:55:29;;;;;;;;;;;17.40;99.90;;;;;;5032148;28;19975;-84
2022/09/02 07:57:55;;;;;;;;;;;17.50;99.90;;;;;;5031513;28;19921;-84
2022/09/02 08:00:21;;;;;;;;;;;17.60;99.90;;;;;;5031555;28;19927;-84
2022/09/02 08:02:47;;;;;;;;;;;17.60;99.90;;;;;;5030997;28;19932;-84
2022/09/02 08:05:13;;;;;;;;;;;17.70;99.80;;;;;;5031306;28;19921;-84
2022/09/02 08:07:39;;;;;;;;;;;17.80;99.60;;;;;;5048297;28;20008;-84
2022/09/02 08:10:06;;;;;;;;;;;17.90;99.20;;;;;;5031634;28;19931;-84
2022/09/02 08:12:31;;;;;;;;;;;18.00;99.20;;;;;;5031049;28;19929;-84
2022/09/02 08:14:57;;;;;;;;;;;18.10;98.50;;;;;;5053099;28;20295;-84
2022/09/02 08:17:23;;;;;;;;;;;18.20;98.30;;;;;;5035713;28;19924;-84
2022/09/02 08:19:48;;;;;;;;;;;18.30;97.70;;;;;;5078746;28;19928;-84
2022/09/02 08:22:14;;;;;;;;;;;18.40;97.70;;;;;;5034409;28;20382;-84
2022/09/02 08:24:39;;;;;;;;;;;18.50;97.10;;;;;;5051240;28;20170;-84
2022/09/02 08:27:05;;;;;;;;;;;18.60;96.60;;;;;;5034275;28;19920;-84
2022/09/02 08:29:30;;;;;;;;;;;18.70;96.40;;;;;;5085010;28;19920;-84
2022/09/02 08:31:56;;;;;;;;;;;18.80;96.20;;;;;;5084085;28;19932;-84
2022/09/02 08:34:21;;;;;;;;;;;18.90;94.90;;;;;;5033443;28;20012;-84
2022/09/02 08:36:47;;;;;;;;;;;18.90;94.90;;;;;;5045596;28;20007;-84
2022/09/02 08:39:12;;;;;;;;;;;19.00;94.40;;;;;;5030047;28;19964;-84
2022/09/02 08:41:38;;;;;;;;;;;19.20;94.20;;;;;;5033180;28;19983;-84
2022/09/02 08:44:04;;;;;;;;;;;19.30;93.80;;;;;;5030901;28;20279;-84
2022/09/02 08:46:30;;;;;;;;;;;19.40;93.40;;;;;;5014517;28;19928;-84
2022/09/02 08:48:56;;;;;;;;;;;19.40;92.20;;;;;;5030539;28;19921;-84
2022/09/02 08:51:34;;;;;;;;;;;19.50;92.70;;;;;;5030678;28;20352;-84
2022/09/02 08:54:04;;;;;;;;;;;19.60;91.10;;;;;;5046748;28;21346;-84
2022/09/02 08:56:30;;;;;;;;;;;19.70;91.00;;;;;;5031735;28;19921;-84
2022/09/02 08:58:56;;;;;;;;;;;19.80;90.90;;;;;;5047574;28;19928;-85
2022/09/02 09:01:40;;;;;;;;;;;19.90;90.70;;;;;;5030723;28;19975;-84
2022/09/02 09:04:08;;;;;;;;;;;20.00;90.60;;;;;;5030734;28;19921;-84
2022/09/02 09:06:41;;;;;;;;;;;20.10;89.10;;;;;;5030825;28;19921;-84
2022/09/02 09:09:18;;;;;;;;;;;20.20;85.80;;;;;;5031034;28;19921;-84
2022/09/02 09:11:47;;;;;;;;;;;20.30;86.40;;;;;;5046937;28;20283;-85
2022/09/02 09:14:32;;;;;;;;;;;20.30;85.40;;;;;;5030414;28;19925;-85
2022/09/02 09:16:58;;;;;;;;;;;20.40;84.40;;;;;;5030986;28;19929;-84
2022/09/02 09:19:27;;;;;;;;;;;20.50;84.10;;;;;;5014086;28;19921;-84
2022/09/02 09:21:53;;;;;;;;;;;20.60;82.00;;;;;;5030261;28;19925;-84
2022/09/02 09:24:24;;;;;;;;;;;20.70;80.30;;;;;;5030342;28;19932;-84
2022/09/02 09:26:51;;;;;;;;;;;20.80;79.70;;;;;;5029572;28;19921;-85
2022/09/02 09:29:17;;;;;;;;;;;20.90;78.40;;;;;;5031468;28;20342;-84
2022/09/02 09:31:43;;;;;;;;;;;20.90;77.80;;;;;;5034781;28;19921;-85
2022/09/02 09:34:10;;;;;;;;;;;21.10;78.10;;;;;;5049830;28;20368;-85
2022/09/02 09:36:39;;;;;;;;;;;21.20;77.60;;;;;;5050024;28;20290;-84
2022/09/02 09:39:16;;;;;;;;;;;21.30;74.50;;;;;;5050264;28;19921;-85
2022/09/02 09:41:42;;;;;;;;;;;21.40;73.80;;;;;;5032847;28;19921;-84
2022/09/02 09:44:08;;;;;;;;;;;21.50;72.60;;;;;;5050530;28;19921;-85
2022/09/02 09:46:33;;;;;;;;;;;21.50;70.60;;;;;;5051273;28;19946;-84
2022/09/02 09:48:59;;;;;;;;;;;21.60;70.70;;;;;;5049796;28;19927;-85
2022/09/02 09:51:24;;;;;;;;;;;21.70;70.30;;;;;;5033202;28;20386;-84
2022/09/02 09:53:51;;;;;;;;;;;21.80;68.80;;;;;;5050017;28;19925;-85
2022/09/02 09:56:17;;;;;;;;;;;21.90;68.60;;;;;;5049494;28;19931;-84
2022/09/02 09:58:44;;;;;;;;;;;22.00;66.50;;;;;;5050119;28;20306;-84
2022/09/02 10:01:13;;;;;;;;;;;22.00;65.10;;;;;;5049991;28;20378;-84
2022/09/02 10:03:46;;;;;;;;;;;22.10;64.70;;;;;;5049146;28;20022;-85
2022/09/02 10:06:21;;;;;;;;;;;22.10;64.80;;;;;;5049900;28;19921;-85
2022/09/02 10:08:49;;;;;;;;;;;22.20;63.40;;;;;;5033483;28;19929;-85
2022/09/02 10:11:20;;;;;;;;;;;22.30;63.00;;;;;;5032775;28;19920;-85
2022/09/02 10:13:46;;;;;;;;;;;22.30;63.00;;;;;;5049670;28;19924;-84
2022/09/02 10:16:17;;;;;;;;;;;22.40;62.10;;;;;;5032958;28;19938;-85
2022/09/02 10:18:47;;;;;;;;;;;22.50;61.50;;;;;;5049772;28;19943;-84
2022/09/02 10:21:24;;;;;;;;;;;22.60;60.60;;;;;;5049357;28;20422;-85
2022/09/02 10:24:00;;;;;;;;;;;22.60;60.30;;;;;;5044333;28;19943;-85
2022/09/02 10:26:42;;;;;;;;;;;22.70;60.20;;;;;;5045927;28;19926;-84
2022/09/02 10:29:28;;;;;;;;;;;22.80;60.00;;;;;;5029816;28;20464;-84
2022/09/02 10:31:53;;;;;;;;;;;22.80;59.20;;;;;;5028898;28;19921;-85
2022/09/02 10:34:31;;;;;;;;;;;22.90;58.70;;;;;;5029877;28;19978;-84
2022/09/02 10:37:15;;;;;;;;;;;23.10;59.00;;;;;;5029946;28;20375;-84
2022/09/02 10:39:59;;;;;;;;;;;23.20;58.10;;;;;;5048533;28;19921;-85
2022/09/02 10:42:28;;;;;;;;;;;23.30;57.50;;;;;;5016512;28;19921;-85
2022/09/02 10:44:53;;;;;;;;;;;23.30;57.90;;;;;;5016598;28;19921;-85
2022/09/02 10:47:26;;;;;;;;;;;23.40;57.70;;;;;;5032899;28;20039;-85
2022/09/02 10:49:57;;;;;;;;;;;23.50;55.70;;;;;;5032875;28;19964;-85
2022/09/02 10:52:31;;;;;;;;;;;23.60;56.80;;;;;;5032449;28;19929;-84
2022/09/02 10:55:06;;;;;;;;;;;23.70;56.80;;;;;;5015965;28;19925;-85
2022/09/02 10:57:34;;;;;;;;;;;23.80;55.50;;;;;;5033084;28;19928;-85
2022/09/02 11:00:13;;;;;;;;;;;23.90;56.10;;;;;;5033026;28;19929;-85
2022/09/02 11:02:42;;;;;;;;;;;23.90;54.70;;;;;;5032652;28;19921;-85
2022/09/02 11:05:15;;;;;;;;;;;24.10;56.30;;;;;;5016732;28;20290;-85
2022/09/02 11:07:59;;;;;;;;;;;24.20;55.10;;;;;;5032739;28;19921;-85
2022/09/02 11:10:28;;;;;;;;;;;24.20;54.20;;;;;;5032450;28;19933;-85
2022/09/02 11:13:14;;;;;;;;;;;24.20;53.90;;;;;;5032489;28;19925;-85
2022/09/02 11:15:52;;;;;;;;;;;24.30;54.80;;;;;;5035203;28;19928;-85
2022/09/02 11:18:21;;;;;;;;;;;24.40;54.20;;;;;;5015888;28;19925;-85
2022/09/02 11:20:51;;;;;;;;;;;24.50;54.30;;;;;;5032287;28;19941;-85
2022/09/02 11:23:36;;;;;;;;;;;24.60;53.40;;;;;;5016313;28;19925;-85
2022/09/02 11:26:07;;;;;;;;;;;24.70;53.30;;;;;;5032447;28;19976;-85
2022/09/02 11:28:39;;;;;;;;;;;24.70;52.40;;;;;;5032848;28;19921;-85
2022/09/02 11:31:09;;;;;;;;;;;24.80;52.50;;;;;;5031936;28;19921;-85
2022/09/02 11:33:42;;;;;;;;;;;24.90;51.90;;;;;;5032506;28;19925;-85
2022/09/02 11:36:07;;;;;;;;;;;24.90;51.00;;;;;;5032523;28;19925;-85
2022/09/02 11:38:40;;;;;;;;;;;25.00;51.20;;;;;;5015471;28;19975;-85
2022/09/02 11:41:27;;;;;;;;;;;25.10;51.00;;;;;;5032007;28;20448;-85
2022/09/02 11:44:04;;;;;;;;;;;25.20;48.60;;;;;;5032418;28;19943;-85
2022/09/02 11:46:53;;;;;;;;;;;25.20;49.40;;;;;;5031789;28;19928;-85
2022/09/02 11:49:22;;;;;;;;;;;25.30;49.90;;;;;;5031914;28;19925;-85
2022/09/02 11:51:47;;;;;;;;;;;25.50;49.90;;;;;;5030793;28;19967;-85
2022/09/02 11:54:15;;;;;;;;;;;25.60;50.20;;;;;;5031507;28;19968;-85
2022/09/02 11:56:42;;;;;;;;;;;25.70;48.90;;;;;;5031893;28;20374;-85
2022/09/02 11:59:18;;;;;;;;;;;25.90;48.60;;;;;;5015610;28;19932;-85
2022/09/02 12:01:53;;;;;;;;;;;25.90;47.30;;;;;;5031239;28;19928;-85
2022/09/02 12:04:25;;;;;;;;;;;25.90;46.30;;;;;;5014946;28;19925;-85
2022/09/02 12:07:06;;;;;;;;;;;25.90;46.90;;;;;;5015155;28;19921;-85
2022/09/02 12:09:41;;;;;;;;;;;26.00;46.60;;;;;;5014943;28;19921;-85
2022/09/02 12:12:07;;;;;;;;;;;26.10;45.70;;;;;;5031510;28;20329;-85
2022/09/02 12:14:33;;;;;;;;;;;26.30;47.40;;;;;;5015006;28;20440;-85
2022/09/02 12:17:02;;;;;;;;;;;26.40;47.20;;;;;;5031503;28;19932;-85
2022/09/02 12:19:39;;;;;;;;;;;26.40;46.50;;;;;;5048461;28;19929;-85
2022/09/02 12:22:13;;;;;;;;;;;26.40;45.70;;;;;;5031212;28;19967;-84
2022/09/02 12:24:51;;;;;;;;;;;26.60;46.80;;;;;;5030993;28;19928;-85
2022/09/02 12:27:20;;;;;;;;;;;26.70;45.40;;;;;;5031173;28;20012;-85
2022/09/02 12:29:45;;;;;;;;;;;26.90;46.70;;;;;;5014756;28;19921;-85
2022/09/02 12:32:11;;;;;;;;;;;27.10;45.20;;;;;;5031008;28;20004;-85
2022/09/02 12:34:45;;;;;;;;;;;27.30;45.50;;;;;;5031160;28;19968;-85
2022/09/02 12:37:31;;;;;;;;;;;27.50;46.10;;;;;;5031228;28;19925;-85
2022/09/02 12:40:01;;;;;;;;;;;27.60;45.80;;;;;;5031034;28;19936;-85
2022/09/02 12:42:30;;;;;;;;;;;27.80;44.50;;;;;;5030734;28;19921;-85
2022/09/02 12:45:06;;;;;;;;;;;28.00;44.20;;;;;;5030965;28;19968;-85
2022/09/02 12:47:31;;;;;;;;;;;28.00;44.40;;;;;;5030862;28;19921;-85
2022/09/02 12:50:15;;;;;;;;;;;28.20;44.90;;;;;;5030893;28;19931;-85
2022/09/02 12:52:49;;;;;;;;;;;28.40;44.70;;;;;;5030400;28;19926;-85
2022/09/02 12:55:25;;;;;;;;;;;28.40;43.30;;;;;;5061507;28;19957;-86
2022/09/02 12:58:05;;;;;;;;;;;28.60;43.10;;;;;;5050214;28;19921;-85
2022/09/02 13:00:38;;;;;;;;;;;28.90;43.20;;;;;;5050210;28;19920;-85
2022/09/02 13:03:35;;;;;;;;;;;29.20;41.20;;;;;;5034077;28;19921;-85
2022/09/02 13:06:10;;;;;;;;;;;29.50;41.70;;;;;;5050406;28;19920;-85
2022/09/02 13:08:54;;;;;;;;;;;29.70;40.50;;;;;;5050258;28;19920;-85
2022/09/02 13:11:23;;;;;;;;;;;29.70;42.30;;;;;;5050074;28;19960;-86
2022/09/02 13:14:07;;;;;;;;;;;29.60;41.60;;;;;;5033838;28;19924;-86
2022/09/02 13:16:38;;;;;;;;;;;29.70;41.80;;;;;;5049998;28;19954;-85
2022/09/02 13:19:26;;;;;;;;;;;29.90;40.30;;;;;;5050489;28;20027;-86
2022/09/02 13:21:59;;;;;;;;;;;30.00;41.20;;;;;;5050091;28;20005;-86
2022/09/02 13:24:45;;;;;;;;;;;30.20;41.70;;;;;;5050039;28;20430;-86
2022/09/02 13:27:26;;;;;;;;;;;30.20;40.10;;;;;;5050195;28;19921;-86
2022/09/02 13:30:04;;;;;;;;;;;30.50;39.30;;;;;;5049924;28;19976;-85
2022/09/02 13:32:30;;;;;;;;;;;30.60;39.60;;;;;;5049580;28;20386;-86
2022/09/02 13:34:58;;;;;;;;;;;31.00;38.50;;;;;;5050404;28;19928;-85
2022/09/02 13:37:37;;;;;;;;;;;31.20;37.60;;;;;;5051478;28;19921;-85
2022/09/02 13:40:16;;;;;;;;;;;31.50;38.10;;;;;;5033474;28;19921;-86
2022/09/02 13:42:46;;;;;;;;;;;31.40;38.60;;;;;;5050179;28;19920;-86
2022/09/02 13:45:16;;;;;;;;;;;31.50;38.10;;;;;;5050006;28;19928;-86
2022/09/02 13:47:47;;;;;;;;;;;31.80;37.30;;;;;;5049747;28;20012;-86
2022/09/02 13:50:14;;;;;;;;;;;32.00;37.10;;;;;;5049054;28;19921;-86
2022/09/02 13:52:40;;;;;;;;;;;32.10;36.30;;;;;;5056244;28;19932;-85
2022/09/02 13:55:09;;;;;;;;;;;32.10;36.00;;;;;;5068899;28;19927;-86
2022/09/02 13:57:35;;;;;;;;;;;32.20;36.20;;;;;;5044487;28;19920;-86
2022/09/02 14:00:00;;;;;;;;;;;32.30;35.40;;;;;;5049898;28;19955;-85
2022/09/02 14:02:27;;;;;;;;;;;32.40;35.00;;;;;;5049616;28;19928;-86
2022/09/02 14:04:56;;;;;;;;;;;32.40;35.40;;;;;;5049661;28;19924;-86
2022/09/02 14:07:25;;;;;;;;;;;32.50;36.40;;;;;;5032906;28;20289;-86
2022/09/02 14:09:50;;;;;;;;;;;32.40;35.00;;;;;;5049845;28;20378;-85
2022/09/02 14:12:16;;;;;;;;;;;32.20;36.20;;;;;;5050944;28;19927;-86
2022/09/02 14:14:42;;;;;;;;;;;32.20;34.60;;;;;;5052234;28;20310;-86
2022/09/02 14:17:18;;;;;;;;;;;32.20;35.30;;;;;;5053607;28;19968;-86
2022/09/02 14:19:43;;;;;;;;;;;32.20;35.30;;;;;;5053404;28;19921;-86
2022/09/02 14:22:28;;;;;;;;;;;32.20;34.20;;;;;;5053367;28;19927;-86
2022/09/02 14:24:54;;;;;;;;;;;32.20;34.30;;;;;;5053389;28;19921;-86
2022/09/02 14:27:22;;;;;;;;;;;32.10;35.70;;;;;;5053502;28;19925;-86
2022/09/02 14:29:54;;;;;;;;;;;32.10;34.30;;;;;;5053560;28;19931;-86